createdAt,value
2023-01-27T00:02:28.466Z,11.93
2023-01-27T00:05:01.719Z,10.35
2023-01-27T00:07:36.711Z,14.98
2023-01-27T00:10:12.428Z,15.98
2023-01-27T00:13:05.770Z,14.65
2023-01-27T00:15:39.501Z,14.60
2023-01-27T00:18:13.400Z,16.45
2023-01-27T00:21:05.075Z,14.15
2023-01-27T00:24:02.699Z,13.55
2023-01-27T00:26:35.888Z,12.18
2023-01-27T00:29:09.061Z,12.35
2023-01-27T00:31:59.754Z,14.20
2023-01-27T00:34:33.277Z,12.23
2023-01-27T00:37:06.853Z,11.35
2023-01-27T00:39:41.618Z,11.70
2023-01-27T00:42:14.953Z,11.77
2023-01-27T00:45:02.046Z,12.27
2023-01-27T00:47:35.154Z,14.25
2023-01-27T00:50:09.519Z,11.20
2023-01-27T00:52:42.751Z,12.38
2023-01-27T00:55:18.364Z,12.52
2023-01-27T00:57:51.745Z,11.30
2023-01-27T01:00:25.122Z,12.80
2023-01-27T01:02:58.393Z,11.48
2023-01-27T01:05:31.589Z,15.23
2023-01-27T01:08:04.911Z,12.45
2023-01-27T01:10:40.688Z,13.93
2023-01-27T01:13:14.992Z,15.55
2023-01-27T01:18:22.551Z,14.35
2023-01-27T01:20:55.860Z,12.57
2023-01-27T01:23:29.122Z,13.65
2023-01-27T01:26:03.828Z,14.30
2023-01-27T01:28:37.310Z,13.32
2023-01-27T01:31:13.019Z,12.10
2023-01-27T01:33:46.591Z,14.73
2023-01-27T01:36:22.437Z,14.05
2023-01-27T01:38:57.013Z,14.52
2023-01-27T01:41:32.017Z,13.13
2023-01-27T01:44:20.828Z,11.02
2023-01-27T01:46:54.284Z,12.82
2023-01-27T01:49:32.175Z,14.10
2023-01-27T01:52:10.762Z,13.40
2023-01-27T01:54:46.350Z,13.60
2023-01-27T01:57:25.379Z,11.88
2023-01-27T02:00:02.878Z,12.88
2023-01-27T02:02:38.116Z,15.23
2023-01-27T02:05:15.725Z,11.80
2023-01-27T02:07:56.121Z,13.00
2023-01-27T02:10:29.758Z,13.73
2023-01-27T02:13:07.063Z,12.27
2023-01-27T02:15:41.203Z,14.45
2023-01-27T02:18:15.530Z,13.07
2023-01-27T02:20:50.830Z,17.55
2023-01-27T02:23:35.148Z,12.77
2023-01-27T02:26:15.442Z,12.18
2023-01-27T02:28:56.795Z,12.07
2023-01-27T02:31:30.132Z,11.20
2023-01-27T02:34:07.249Z,12.40
2023-01-27T02:36:46.069Z,11.23
2023-01-27T02:39:22.682Z,11.10
2023-01-27T02:41:59.811Z,9.27
2023-01-27T02:44:33.346Z,10.52
2023-01-27T02:47:06.973Z,11.57
2023-01-27T02:49:40.228Z,8.65
2023-01-27T02:52:13.439Z,10.48
2023-01-27T02:54:46.672Z,11.77
2023-01-27T02:57:21.325Z,11.52
2023-01-27T02:59:54.729Z,9.02
2023-01-27T03:02:30.989Z,10.05
2023-01-27T03:05:04.737Z,9.57
2023-01-27T03:07:38.018Z,11.27
2023-01-27T03:10:12.096Z,9.68
2023-01-27T03:12:48.626Z,10.20
2023-01-27T03:15:40.729Z,11.18
2023-01-27T03:18:16.177Z,12.05
2023-01-27T03:20:50.871Z,14.75
2023-01-27T03:23:24.118Z,9.98
2023-01-27T03:25:57.723Z,11.95
2023-01-27T03:28:32.468Z,14.00
2023-01-27T03:31:07.876Z,14.20
2023-01-27T03:33:43.171Z,13.77
2023-01-27T03:36:34.411Z,13.55
2023-01-27T03:39:25.456Z,15.07
2023-01-27T03:42:16.375Z,16.77
2023-01-27T03:45:08.165Z,14.10
2023-01-27T03:47:41.622Z,14.38
2023-01-27T03:50:19.493Z,12.00
2023-01-27T03:53:03.996Z,12.95
2023-01-27T03:55:38.819Z,15.60
2023-01-27T03:58:20.549Z,13.45
2023-01-27T04:00:57.824Z,12.75
2023-01-27T04:03:51.025Z,19.52
2023-01-27T04:06:43.782Z,14.98
2023-01-27T04:09:21.504Z,11.73
2023-01-27T04:11:56.377Z,17.02
2023-01-27T04:14:32.290Z,17.67
2023-01-27T04:17:08.779Z,18.10
2023-01-27T04:19:42.591Z,15.75
2023-01-27T04:22:17.554Z,18.55
2023-01-27T04:24:50.839Z,15.73
2023-01-27T04:27:24.027Z,14.73
2023-01-27T04:29:57.236Z,21.75
2023-01-27T04:32:32.172Z,21.83
2023-01-27T04:35:06.437Z,20.13
2023-01-27T04:37:39.999Z,21.40
2023-01-27T04:40:14.635Z,18.58
2023-01-27T04:42:48.498Z,21.95
2023-01-27T04:47:56.004Z,22.52
2023-01-27T04:50:29.298Z,22.95
2023-01-27T04:53:02.878Z,21.73
2023-01-27T04:55:36.397Z,21.50
2023-01-27T04:58:09.611Z,24.35
2023-01-27T05:00:42.851Z,19.80
2023-01-27T05:03:17.701Z,18.77
2023-01-27T05:05:50.977Z,23.83
2023-01-27T05:08:24.613Z,21.45
2023-01-27T05:10:58.329Z,21.10
2023-01-27T05:16:08.744Z,19.02
2023-01-27T05:18:44.588Z,28.17
2023-01-27T05:21:19.966Z,24.48
2023-01-27T05:23:53.854Z,29.13
2023-01-27T05:26:28.979Z,16.58
2023-01-27T05:29:02.432Z,27.38
2023-01-27T05:31:35.636Z,15.75
2023-01-27T05:34:11.095Z,19.73
2023-01-27T05:36:44.311Z,26.77
2023-01-27T05:39:17.669Z,24.25
2023-01-27T05:44:24.766Z,28.00
2023-01-27T05:46:57.996Z,16.23
2023-01-27T05:49:33.349Z,27.02
2023-01-27T05:52:06.530Z,24.25
2023-01-27T05:54:39.794Z,26.23
2023-01-27T05:57:13.271Z,24.45
2023-01-27T05:59:47.232Z,22.67
2023-01-27T06:02:22.700Z,25.83
2023-01-27T06:04:57.969Z,28.75
2023-01-27T06:07:31.358Z,20.98
2023-01-27T06:10:04.893Z,29.55
2023-01-27T06:12:39.717Z,32.13
2023-01-27T06:15:13.455Z,37.25
2023-01-27T06:17:47.573Z,32.25
2023-01-27T06:20:22.250Z,49.70
2023-01-27T06:22:55.878Z,50.13
2023-01-27T06:25:29.104Z,47.42
2023-01-27T06:28:02.671Z,41.35
2023-01-27T06:30:37.108Z,35.83
2023-01-27T06:33:13.229Z,37.17
2023-01-27T06:35:49.335Z,38.65
2023-01-27T06:38:22.548Z,44.45
2023-01-27T06:40:55.746Z,51.40
2023-01-27T06:46:05.488Z,46.92
2023-01-27T06:48:39.164Z,56.75
2023-01-27T06:51:13.902Z,55.65
2023-01-27T06:53:47.269Z,43.08
2023-01-27T06:56:20.470Z,48.33
2023-01-27T06:58:53.888Z,61.38
2023-01-27T07:01:28.424Z,57.15
2023-01-27T07:04:02.148Z,34.38
2023-01-27T07:06:36.975Z,25.67
2023-01-27T07:09:10.647Z,36.38
2023-01-27T07:11:45.001Z,28.25
2023-01-27T07:14:18.523Z,34.53
2023-01-27T07:16:52.378Z,31.60
2023-01-27T07:19:25.820Z,23.42
2023-01-27T07:22:01.004Z,30.88
2023-01-27T07:24:34.226Z,28.63
2023-01-27T07:27:07.337Z,34.25
2023-01-27T07:29:40.613Z,40.60
2023-01-27T07:32:13.873Z,44.35
2023-01-27T07:34:47.551Z,26.80
2023-01-27T07:37:22.316Z,20.83
2023-01-27T07:39:55.420Z,24.55
2023-01-27T07:42:28.655Z,17.95
2023-01-27T07:45:02.004Z,18.48
2023-01-27T07:47:35.238Z,21.35
2023-01-27T07:50:09.945Z,18.75
2023-01-27T07:52:44.684Z,16.73
2023-01-27T07:55:18.022Z,18.52
2023-01-27T07:57:54.479Z,18.98
2023-01-27T08:00:28.336Z,16.05
2023-01-27T08:03:03.492Z,17.42
2023-01-27T08:05:38.485Z,14.25
2023-01-27T08:08:13.539Z,15.50
2023-01-27T08:10:49.333Z,14.57
2023-01-27T08:13:23.548Z,22.25
2023-01-27T08:15:58.351Z,16.52
2023-01-27T08:18:33.429Z,12.65
2023-01-27T08:21:08.567Z,13.13
2023-01-27T08:23:43.171Z,13.65
2023-01-27T08:26:16.536Z,12.95
2023-01-27T08:28:49.838Z,29.45
2023-01-27T08:31:23.180Z,15.45
2023-01-27T08:33:56.715Z,12.95
2023-01-27T08:36:30.830Z,18.70
2023-01-27T08:39:05.707Z,11.75
2023-01-27T08:41:39.108Z,12.30
2023-01-27T08:44:12.278Z,9.52
2023-01-27T08:46:45.899Z,12.35
2023-01-27T08:49:19.476Z,14.30
2023-01-27T08:51:53.079Z,16.27
2023-01-27T08:54:27.669Z,13.70
2023-01-27T08:57:00.895Z,12.00
2023-01-27T08:59:34.381Z,16.73
2023-01-27T09:02:07.953Z,12.52
2023-01-27T09:04:43.909Z,11.88
2023-01-27T09:07:18.140Z,18.23
2023-01-27T09:10:04.194Z,13.02
2023-01-27T09:12:46.608Z,15.25
2023-01-27T09:15:20.769Z,20.75
2023-01-27T09:20:28.071Z,22.15
2023-01-27T09:23:01.372Z,14.38
2023-01-27T09:25:35.936Z,11.77
2023-01-27T09:28:16.920Z,16.27
2023-01-27T09:30:50.413Z,19.17
2023-01-27T09:33:23.720Z,13.43
2023-01-27T09:36:01.977Z,17.15
2023-01-27T09:38:39.281Z,20.65
2023-01-27T09:41:43.880Z,18.83
2023-01-27T09:44:52.877Z,20.92
2023-01-27T09:47:50.324Z,22.10
2023-01-27T09:50:40.756Z,15.55
2023-01-27T09:53:46.903Z,17.42
2023-01-27T09:56:29.917Z,17.15
2023-01-27T09:59:49.307Z,25.23
2023-01-27T10:02:39.518Z,18.33
2023-01-27T10:05:36.063Z,20.38
2023-01-27T10:08:25.291Z,26.10
2023-01-27T10:11:13.542Z,20.08
2023-01-27T10:14:00.258Z,19.35
2023-01-27T10:16:58.878Z,19.75
2023-01-27T10:19:46.679Z,16.73
2023-01-27T10:22:31.539Z,16.67
2023-01-27T10:25:18.773Z,17.92
2023-01-27T10:27:58.031Z,20.83
2023-01-27T10:30:36.310Z,16.20
2023-01-27T10:33:18.141Z,19.00
2023-01-27T10:35:53.751Z,18.67
2023-01-27T10:38:38.895Z,19.77
2023-01-27T10:41:26.554Z,18.55
2023-01-27T10:44:14.484Z,19.92
2023-01-27T10:46:59.588Z,16.75
2023-01-27T10:49:39.575Z,22.88
2023-01-27T10:52:16.539Z,18.65
2023-01-27T10:54:54.847Z,18.88
2023-01-27T10:57:34.530Z,23.63
2023-01-27T11:00:46.195Z,18.92
2023-01-27T11:03:17.421Z,18.05
2023-01-27T11:05:53.951Z,17.05
2023-01-27T11:08:30.301Z,16.08
2023-01-27T11:11:24.378Z,20.52
2023-01-27T11:14:04.647Z,22.98
2023-01-27T11:16:41.382Z,16.05
2023-01-27T11:19:25.096Z,20.52
2023-01-27T11:22:07.771Z,20.27
2023-01-27T11:24:46.535Z,15.77
2023-01-27T11:27:28.184Z,24.08
2023-01-27T11:30:10.555Z,22.83
2023-01-27T11:32:54.457Z,23.83
2023-01-27T11:35:29.815Z,19.80
2023-01-27T11:38:14.836Z,24.80
2023-01-27T11:40:51.254Z,24.15
2023-01-27T11:43:26.588Z,31.65
2023-01-27T11:46:03.910Z,24.30
2023-01-27T11:48:41.315Z,28.15
2023-01-27T11:51:22.929Z,16.15
2023-01-27T11:54:10.548Z,23.50
2023-01-27T11:56:47.168Z,25.00
2023-01-27T11:59:23.986Z,20.23
2023-01-27T12:02:00.798Z,18.88
2023-01-27T12:04:49.906Z,18.88
2023-01-27T12:07:40.328Z,21.15
2023-01-27T12:10:26.633Z,19.08
2023-01-27T12:13:03.756Z,24.75
2023-01-27T12:15:47.935Z,17.60
2023-01-27T12:18:23.603Z,17.65
2023-01-27T12:21:01.566Z,13.48
2023-01-27T12:23:41.298Z,21.08
2023-01-27T12:26:15.026Z,13.48
2023-01-27T12:28:52.210Z,20.13
2023-01-27T12:31:28.893Z,18.08
2023-01-27T12:34:05.223Z,19.73
2023-01-27T12:36:40.864Z,21.90
2023-01-27T12:39:29.938Z,13.98
2023-01-27T12:42:03.482Z,19.77
2023-01-27T12:44:44.872Z,16.55
2023-01-27T12:47:25.160Z,18.65
2023-01-27T12:50:22.257Z,13.60
2023-01-27T12:53:05.791Z,15.13
2023-01-27T12:55:45.404Z,14.70
2023-01-27T12:58:32.709Z,13.80
2023-01-27T13:01:09.314Z,14.00
2023-01-27T13:03:43.852Z,15.63
2023-01-27T13:06:19.973Z,13.73
2023-01-27T13:08:54.533Z,16.38
2023-01-27T13:11:37.795Z,16.17
2023-01-27T13:14:18.405Z,13.65
2023-01-27T13:16:53.396Z,20.52
2023-01-27T13:19:35.930Z,19.20
2023-01-27T13:22:18.923Z,22.88
2023-01-27T13:24:59.105Z,20.35
2023-01-27T13:27:40.776Z,23.33
2023-01-27T13:30:25.059Z,23.97
2023-01-27T13:33:04.031Z,18.52
2023-01-27T13:35:44.704Z,22.95
2023-01-27T13:38:24.197Z,19.73
2023-01-27T13:40:58.260Z,19.90
2023-01-27T13:43:41.527Z,18.58
2023-01-27T13:46:21.831Z,20.08
2023-01-27T13:48:57.657Z,18.48
2023-01-27T13:51:32.411Z,16.27
2023-01-27T13:54:06.546Z,22.55
2023-01-27T13:59:40.227Z,20.75
2023-01-27T14:02:34.679Z,24.13
2023-01-27T14:08:13.256Z,26.23
2023-01-27T14:11:00.411Z,23.45
2023-01-27T14:13:54.958Z,20.02
2023-01-27T14:16:41.929Z,19.85
2023-01-27T14:19:30.036Z,22.02
2023-01-27T14:22:10.828Z,27.33
2023-01-27T14:24:53.389Z,23.90
2023-01-27T14:27:33.715Z,25.10
2023-01-27T14:30:14.943Z,21.98
2023-01-27T14:32:59.851Z,27.33
2023-01-27T14:35:42.832Z,29.48
2023-01-27T14:38:23.655Z,29.70
2023-01-27T14:41:11.389Z,22.98
2023-01-27T14:43:55.501Z,24.10
2023-01-27T14:46:48.219Z,26.65
2023-01-27T14:49:33.512Z,23.67
2023-01-27T14:52:22.019Z,26.08
2023-01-27T14:55:16.077Z,22.05
2023-01-27T14:57:58.222Z,28.77
2023-01-27T15:00:42.895Z,22.67
2023-01-27T15:03:49.157Z,34.10
2023-01-27T15:06:31.854Z,24.50
2023-01-27T15:09:18.071Z,24.92
2023-01-27T15:12:12.892Z,27.90
2023-01-27T15:15:29.209Z,22.85
2023-01-27T15:18:16.150Z,27.77
2023-01-27T15:21:03.429Z,24.45
2023-01-27T15:23:55.789Z,29.20
2023-01-27T15:26:30.594Z,26.77
2023-01-27T15:29:05.834Z,25.08
2023-01-27T15:31:39.008Z,25.05
2023-01-27T15:34:23.291Z,30.35
2023-01-27T15:37:02.943Z,36.70
2023-01-27T15:40:04.103Z,31.13
2023-01-27T15:42:52.613Z,35.00
2023-01-27T15:45:31.173Z,30.08
2023-01-27T15:48:11.533Z,31.05
2023-01-27T15:50:48.390Z,30.63
2023-01-27T15:53:29.809Z,26.13
2023-01-27T15:56:06.527Z,33.53
2023-01-27T15:58:42.197Z,30.23
2023-01-27T16:01:26.788Z,24.08
2023-01-27T16:04:16.406Z,35.47
2023-01-27T16:06:53.166Z,35.33
2023-01-27T16:09:35.262Z,37.58
2023-01-27T16:12:33.372Z,35.23
2023-01-27T16:15:39.042Z,25.33
2023-01-27T16:18:27.628Z,29.10
2023-01-27T16:21:06.600Z,27.88
2023-01-27T16:23:47.955Z,26.45
2023-01-27T16:26:32.830Z,30.15
2023-01-27T16:29:27.984Z,30.30
2023-01-27T16:32:05.705Z,32.50
2023-01-27T16:34:42.862Z,38.30
2023-01-27T16:37:25.052Z,30.90
2023-01-27T16:40:05.779Z,30.67
2023-01-27T16:42:46.522Z,31.00
2023-01-27T16:45:23.775Z,24.23
2023-01-27T16:48:01.247Z,31.23
2023-01-27T16:50:38.183Z,31.30
2023-01-27T16:53:18.740Z,28.60
2023-01-27T16:55:58.573Z,25.60
2023-01-27T16:58:45.549Z,35.70
2023-01-27T17:01:26.669Z,30.08
2023-01-27T17:04:17.937Z,37.13
2023-01-27T17:06:54.205Z,31.48
2023-01-27T17:09:31.964Z,28.33
2023-01-27T17:12:07.015Z,28.73
2023-01-27T17:14:48.488Z,31.02
2023-01-27T17:17:25.982Z,31.73
2023-01-27T17:20:03.861Z,33.90
2023-01-27T17:22:40.487Z,34.45
2023-01-27T17:25:16.909Z,33.42
2023-01-27T17:27:50.433Z,28.23
2023-01-27T17:30:27.510Z,30.38
2023-01-27T17:33:06.033Z,30.83
2023-01-27T17:35:42.461Z,29.60
2023-01-27T17:38:21.062Z,26.17
2023-01-27T17:40:56.857Z,27.10
2023-01-27T17:43:32.833Z,32.53
2023-01-27T17:46:16.368Z,31.02
2023-01-27T17:48:56.323Z,26.75
2023-01-27T17:51:36.750Z,34.20
2023-01-27T17:54:21.440Z,30.88
2023-01-27T17:57:04.725Z,42.45
2023-01-27T17:59:42.786Z,35.50
2023-01-27T18:02:21.641Z,37.55
2023-01-27T18:05:01.042Z,34.67
2023-01-27T18:07:34.851Z,35.63
2023-01-27T18:10:25.030Z,38.42
2023-01-27T18:13:12.998Z,39.00
2023-01-27T18:15:51.580Z,43.95
2023-01-27T18:18:27.218Z,39.85
2023-01-27T18:21:08.590Z,41.42
2023-01-27T18:23:46.893Z,52.55
2023-01-27T18:26:24.953Z,41.92
2023-01-27T18:29:01.643Z,41.53
2023-01-27T18:31:39.525Z,39.92
2023-01-27T18:34:25.753Z,38.03
2023-01-27T18:37:05.191Z,40.10
2023-01-27T18:39:43.829Z,41.25
2023-01-27T18:42:20.715Z,41.65
2023-01-27T18:44:55.938Z,35.70
2023-01-27T18:47:34.599Z,42.42
2023-01-27T18:50:17.120Z,35.38
2023-01-27T18:52:54.331Z,38.28
2023-01-27T18:55:30.798Z,37.50
2023-01-27T18:58:09.031Z,37.67
2023-01-27T19:00:46.232Z,38.53
2023-01-27T19:03:24.271Z,42.10
2023-01-27T19:05:59.381Z,36.47
2023-01-27T19:08:35.848Z,33.80
2023-01-27T19:11:12.666Z,36.55
2023-01-27T19:13:49.693Z,37.03
2023-01-27T19:16:24.961Z,26.98
2023-01-27T19:18:59.796Z,33.95
2023-01-27T19:21:34.473Z,32.88
2023-01-27T19:24:13.190Z,34.40
2023-01-27T19:26:48.251Z,31.63
2023-01-27T19:29:23.262Z,29.52
2023-01-27T19:31:57.647Z,31.67
2023-01-27T19:34:32.093Z,37.58
2023-01-27T19:37:06.429Z,35.72
2023-01-27T19:39:41.042Z,39.80
2023-01-27T19:42:17.067Z,33.05
2023-01-27T19:44:50.592Z,29.88
2023-01-27T19:47:24.211Z,26.60
2023-01-27T19:49:58.180Z,29.75
2023-01-27T19:55:08.051Z,28.87
2023-01-27T19:57:43.205Z,32.70
2023-01-27T20:00:23.559Z,37.15
2023-01-27T20:02:58.223Z,29.13
2023-01-27T20:05:35.540Z,32.13
2023-01-27T20:08:15.483Z,33.83
2023-01-27T20:10:51.421Z,34.30
2023-01-27T20:13:25.636Z,28.58
2023-01-27T20:15:59.175Z,30.92
2023-01-27T20:18:32.975Z,30.98
2023-01-27T20:21:06.336Z,27.58
2023-01-27T20:23:45.569Z,25.38
2023-01-27T20:26:22.486Z,28.17
2023-01-27T20:28:56.859Z,28.77
2023-01-27T20:34:03.978Z,26.25
2023-01-27T20:36:37.560Z,26.05
2023-01-27T20:39:11.848Z,26.65
2023-01-27T20:41:46.466Z,27.55
2023-01-27T20:44:20.536Z,22.05
2023-01-27T20:46:53.964Z,24.27
2023-01-27T20:49:27.567Z,25.25
2023-01-27T20:52:00.908Z,24.95
2023-01-27T20:54:34.317Z,25.30
2023-01-27T20:57:08.979Z,24.33
2023-01-27T20:59:42.431Z,27.00
2023-01-27T21:02:16.157Z,26.50
2023-01-27T21:04:49.715Z,26.25
2023-01-27T21:07:23.464Z,22.88
2023-01-27T21:12:31.623Z,19.55
2023-01-27T21:15:09.832Z,23.25
2023-01-27T21:17:44.022Z,23.75
2023-01-27T21:20:17.869Z,23.92
2023-01-27T21:22:51.006Z,23.25
2023-01-27T21:25:24.251Z,21.48
2023-01-27T21:27:58.797Z,19.08
2023-01-27T21:30:32.270Z,21.15
2023-01-27T21:33:05.848Z,21.10
2023-01-27T21:35:39.477Z,17.30
2023-01-27T21:38:16.567Z,19.80
2023-01-27T21:40:51.520Z,17.77
2023-01-27T21:43:43.799Z,19.55
2023-01-27T21:46:17.153Z,22.00
2023-01-27T21:48:50.458Z,19.60
2023-01-27T21:51:23.635Z,17.95
2023-01-27T21:53:56.960Z,18.00
2023-01-27T21:56:30.392Z,20.55
2023-01-27T21:59:05.404Z,18.75
2023-01-27T22:01:38.858Z,19.00
2023-01-27T22:04:12.336Z,17.08
2023-01-27T22:09:19.298Z,16.08
2023-01-27T22:11:54.102Z,15.98
2023-01-27T22:14:30.897Z,14.43
2023-01-27T22:17:05.168Z,16.92
2023-01-27T22:19:39.221Z,14.75
2023-01-27T22:22:14.344Z,15.85
2023-01-27T22:24:47.536Z,13.20
2023-01-27T22:27:20.965Z,14.15
2023-01-27T22:29:56.068Z,13.02
2023-01-27T22:32:29.469Z,13.10
2023-01-27T22:35:02.816Z,12.02
2023-01-27T22:37:37.736Z,11.43
2023-01-27T22:40:13.664Z,11.70
2023-01-27T22:42:49.441Z,12.43
2023-01-27T22:45:25.480Z,11.93
2023-01-27T22:47:58.861Z,8.82
2023-01-27T22:50:32.182Z,9.52
2023-01-27T22:53:06.379Z,13.52
2023-01-27T22:55:39.601Z,11.10
2023-01-27T22:58:12.995Z,12.15
2023-01-27T23:00:47.892Z,8.60
2023-01-27T23:03:21.491Z,9.27
2023-01-27T23:08:28.099Z,10.50
2023-01-27T23:11:02.574Z,10.30
2023-01-27T23:13:37.045Z,10.93
2023-01-27T23:16:12.681Z,10.77
2023-01-27T23:18:45.910Z,8.80
2023-01-27T23:21:19.184Z,8.57
2023-01-27T23:23:52.427Z,12.70
2023-01-27T23:26:25.975Z,10.98
2023-01-27T23:28:59.216Z,9.65
2023-01-27T23:31:34.228Z,8.20
2023-01-27T23:34:07.966Z,9.35
2023-01-27T23:36:41.277Z,11.00
2023-01-27T23:39:15.818Z,9.73
2023-01-27T23:41:49.087Z,7.70
2023-01-27T23:44:22.470Z,13.85
2023-01-27T23:46:57.141Z,8.63
2023-01-27T23:49:30.809Z,8.05
2023-01-27T23:52:04.280Z,10.13
2023-01-27T23:54:37.461Z,10.77
2023-01-27T23:57:11.052Z,10.77
2023-01-27T23:59:44.193Z,12.15
